Time;durP1;ratioP1;P1;durP2;ratioP2;P2;SDS_P1;SDS_P2;PMS_P1;PMS_P2;Temp;Humidity;BMP_temperature;BMP_pressure;BME280_temperature;BME280_humidity;BME280_pressure;Samples;Min_cycle;Max_cycle;Signal;HPM_P1;HPM_P2
2022/04/20 00:02:24;;;;;;;2.55;1.95;;;;;;;7.76;51.93;101481.44;5033310;28;20044;-69
2022/04/20 00:04:53;;;;;;;5.97;2.30;;;;;;;7.67;51.88;101490.28;5033900;28;20049;-69
2022/04/20 00:07:21;;;;;;;4.75;2.10;;;;;;;7.56;52.40;101485.09;5027472;28;20050;-69
2022/04/20 00:09:48;;;;;;;8.30;2.30;;;;;;;7.51;52.35;101488.66;5033160;28;20050;-69
2022/04/20 00:12:16;;;;;;;3.42;2.08;;;;;;;7.46;52.20;101488.69;5031858;28;20054;-70
2022/04/20 00:14:44;;;;;;;5.30;2.30;;;;;;;7.43;52.47;101486.97;5032965;28;20069;-70
2022/04/20 00:17:11;;;;;;;3.67;2.00;;;;;;;7.42;52.80;101482.59;5024225;28;20234;-69
2022/04/20 00:19:39;;;;;;;4.28;2.47;;;;;;;7.43;52.88;101480.81;5032575;28;20038;-69
2022/04/20 00:22:06;;;;;;;4.30;1.98;;;;;;;7.42;52.98;101477.34;5032433;28;20077;-70
2022/04/20 00:24:34;;;;;;;3.83;2.20;;;;;;;7.41;53.08;101477.38;5030515;28;20046;-69
2022/04/20 00:27:02;;;;;;;3.40;2.30;;;;;;;7.39;53.17;101481.75;5033731;28;20046;-70
2022/04/20 00:29:29;;;;;;;3.78;2.33;;;;;;;7.36;53.26;101484.38;5029651;28;20505;-69
2022/04/20 00:31:56;;;;;;;3.30;2.05;;;;;;;7.32;53.48;101482.69;5014952;28;20513;-70
2022/04/20 00:34:24;;;;;;;3.85;2.60;;;;;;;7.27;53.91;101472.22;5034244;28;20054;-70
2022/04/20 00:36:53;;;;;;;5.35;2.30;;;;;;;7.23;53.97;101481.81;5027221;28;20098;-69
2022/04/20 00:39:20;;;;;;;4.18;2.13;;;;;;;7.19;54.00;101489.72;5023323;28;20042;-69
2022/04/20 00:41:48;;;;;;;5.30;2.38;;;;;;;7.16;54.33;101485.38;5026410;28;20038;-69
2022/04/20 00:44:16;;;;;;;5.32;2.40;;;;;;;7.13;54.31;101485.38;5031922;28;20049;-69
2022/04/20 00:46:47;;;;;;;8.95;2.97;;;;;;;7.10;54.44;101485.41;5032410;28;20038;-67
2022/04/20 00:49:15;;;;;;;3.00;2.10;;;;;;;7.09;54.45;101487.16;5031999;28;20042;-67
2022/04/20 00:51:57;;;;;;;4.10;2.50;;;;;;;7.08;54.50;101492.41;5028791;28;20112;-66
2022/04/20 00:54:27;;;;;;;3.25;2.30;;;;;;;7.04;54.46;101485.44;5024590;28;20052;-65
2022/04/20 00:56:55;;;;;;;2.78;2.20;;;;;;;7.01;54.36;101488.94;5032399;28;20845;-65
2022/04/20 00:59:28;;;;;;;3.85;2.17;;;;;;;6.97;54.38;101495.06;5045018;28;20795;-66
2022/04/20 01:01:57;;;;;;;3.95;2.40;;;;;;;6.92;54.54;101499.47;5032234;28;20041;-66
2022/04/20 01:04:45;;;;;;;3.92;2.05;;;;;;;6.90;54.71;101496.00;5029207;28;20049;-67
2022/04/20 01:07:37;;;;;;;4.05;2.28;;;;;;;6.90;54.50;101499.50;5037043;28;20061;-67
2022/04/20 01:10:24;;;;;;;6.35;2.60;;;;;;;6.89;54.40;101494.25;5029749;28;20050;-66
2022/04/20 01:13:10;;;;;;;3.40;2.25;;;;;;;6.90;54.52;101490.75;5034026;28;20054;-68
2022/04/20 01:16:01;;;;;;;5.75;2.50;;;;;;;6.88;54.77;101495.13;5029296;28;20033;-67
2022/04/20 01:18:50;;;;;;;4.53;2.17;;;;;;;6.87;54.48;101490.78;5031106;28;20104;-66
2022/04/20 01:21:26;;;;;;;3.47;2.45;;;;;;;6.87;54.45;101496.03;5034701;28;20046;-68
2022/04/20 01:24:04;;;;;;;6.70;2.50;;;;;;;6.83;54.57;101492.53;5030585;28;20072;-68
2022/04/20 01:26:47;;;;;;;4.25;2.50;;;;;;;6.82;54.56;101489.03;5047375;28;20040;-70
2022/04/20 01:29:32;;;;;;;5.50;2.70;;;;;;;6.83;54.48;101495.13;5020695;28;20041;-68
2022/04/20 01:32:15;;;;;;;4.80;2.55;;;;;;;6.80;54.62;101498.66;5030821;28;20108;-69
2022/04/20 01:35:08;;;;;;;4.35;2.60;;;;;;;6.78;54.49;101494.31;5032528;28;20037;-68
2022/04/20 01:37:35;;;;;;;3.80;2.38;;;;;;;6.76;54.31;101491.69;5031279;28;20042;-69
2022/04/20 01:40:03;;;;;;;4.40;2.55;;;;;;;6.75;54.43;101489.97;5030215;28;20066;-68
2022/04/20 01:42:32;;;;;;;5.43;2.50;;;;;;;6.74;54.51;101495.19;5027648;28;20042;-69
2022/04/20 01:45:03;;;;;;;6.05;2.67;;;;;;;6.70;54.56;101493.47;5030290;28;20515;-68
2022/04/20 01:48:03;;;;;;;2.85;2.47;;;;;;;6.66;54.79;101492.63;5011730;28;20057;-68
2022/04/20 01:53:53;;;;;;;3.78;2.78;;;;;;;6.62;54.66;101494.34;5021316;28;20050;-68
2022/04/20 01:56:40;;;;;;;5.75;2.30;;;;;;;6.63;54.67;101495.22;5035378;28;20043;-69
2022/04/20 01:59:15;;;;;;;3.67;2.50;;;;;;;6.63;54.91;101493.47;5029660;28;20435;-69
2022/04/20 02:05:08;;;;;;;4.47;2.58;;;;;;;6.63;54.98;101490.00;5030798;28;20930;-69
2022/04/20 02:07:36;;;;;;;5.45;2.78;;;;;;;6.61;54.81;101484.78;5031676;28;20121;-68
2022/04/20 02:10:06;;;;;;;3.63;2.40;;;;;;;6.63;55.05;101492.63;5042251;28;20049;-70
2022/04/20 02:12:36;;;;;;;4.70;2.72;;;;;;;6.61;54.84;101490.00;5030074;28;20053;-67
2022/04/20 02:15:31;;;;;;;5.88;2.42;;;;;;;6.63;54.85;101492.63;5029402;28;20120;-67
2022/04/20 02:18:05;;;;;;;3.67;2.42;;;;;;;6.65;54.96;101498.72;5032087;28;20041;-67
2022/04/20 02:20:47;;;;;;;3.38;2.28;;;;;;;6.68;54.65;101489.09;5027942;28;20157;-66
2022/04/20 02:23:15;;;;;;;4.00;2.60;;;;;;;6.68;54.66;101493.47;5030612;28;20116;-67
2022/04/20 02:25:43;;;;;;;5.13;2.78;;;;;;;6.67;54.65;101491.72;5028871;28;20038;-67
2022/04/20 02:28:11;;;;;;;2.88;2.53;;;;;;;6.66;54.71;101493.47;5025166;28;20439;-67
2022/04/20 02:30:38;;;;;;;4.45;3.03;;;;;;;6.65;54.84;101493.50;5026668;28;20034;-68
2022/04/20 02:33:05;;;;;;;4.70;2.55;;;;;;;6.65;54.75;101496.97;5030959;28;20085;-67
2022/04/20 02:35:35;;;;;;;4.70;2.70;;;;;;;6.65;54.67;101496.09;5028122;28;20046;-68
2022/04/20 02:38:11;;;;;;;4.57;2.72;;;;;;;6.63;54.70;101492.63;5030359;28;20041;-67
2022/04/20 02:40:39;;;;;;;4.82;2.42;;;;;;;6.62;54.72;101494.34;5028499;28;20532;-67
2022/04/20 02:43:08;;;;;;;5.15;2.60;;;;;;;6.62;54.79;101493.50;5030656;28;20046;-68
2022/04/20 02:45:37;;;;;;;3.22;2.60;;;;;;;6.61;55.04;101502.22;5030887;28;20030;-68
2022/04/20 02:48:05;;;;;;;5.18;2.90;;;;;;;6.60;54.88;101497.84;5029710;28;20042;-67
2022/04/20 02:50:32;;;;;;;4.85;2.58;;;;;;;6.59;54.94;101497.00;5030396;28;20050;-67
2022/04/20 02:52:59;;;;;;;3.83;2.67;;;;;;;6.59;54.84;101501.34;5031445;28;20065;-68
2022/04/20 02:55:27;;;;;;;3.72;2.90;;;;;;;6.58;55.00;101496.97;5029288;28;20045;-67
2022/04/20 02:57:55;;;;;;;5.60;2.60;;;;;;;6.57;55.13;101496.13;5026081;28;20046;-68
2022/04/20 03:00:23;;;;;;;5.07;2.88;;;;;;;6.59;54.99;101503.97;5012198;28;20884;-68
2022/04/20 03:02:58;;;;;;;5.32;3.15;;;;;;;6.56;54.99;101504.84;5025919;28;20076;-69
2022/04/20 03:05:25;;;;;;;6.65;3.20;;;;;;;6.54;55.02;101501.38;5029661;28;20080;-69
2022/04/20 03:07:53;;;;;;;3.30;2.70;;;;;;;6.51;55.08;101509.25;5045924;28;20100;-69
2022/04/20 03:10:23;;;;;;;6.05;3.10;;;;;;;6.48;55.25;101510.09;5028653;28;20042;-67
2022/04/20 03:12:52;;;;;;;6.25;3.00;;;;;;;6.45;55.46;101511.88;5029530;28;20077;-68
2022/04/20 03:15:20;;;;;;;3.53;2.60;;;;;;;6.43;55.63;101508.38;5042635;28;20562;-70
2022/04/20 03:17:48;;;;;;;4.43;2.80;;;;;;;6.38;55.57;101508.38;5023674;28;20049;-70
2022/04/20 03:20:15;;;;;;;4.03;2.90;;;;;;;6.36;55.96;101507.50;5030499;28;20787;-69
2022/04/20 03:22:42;;;;;;;5.38;2.70;;;;;;;6.34;55.81;101510.16;5029512;28;20112;-68
2022/04/20 03:25:11;;;;;;;4.63;3.03;;;;;;;6.34;55.70;101511.91;5029441;28;20042;-68
2022/04/20 03:27:56;;;;;;;4.63;3.08;;;;;;;6.31;55.94;101510.13;5028188;28;20054;-67
2022/04/20 03:30:24;;;;;;;5.53;2.97;;;;;;;6.30;56.10;101518.00;5029325;28;20042;-68
2022/04/20 03:32:51;;;;;;;4.60;2.90;;;;;;;6.28;55.99;101514.50;5028822;28;20053;-68
2022/04/20 03:35:19;;;;;;;5.75;3.03;;;;;;;6.27;56.27;101521.50;5017397;28;20046;-70
2022/04/20 03:37:46;;;;;;;4.35;2.95;;;;;;;6.27;56.19;101523.25;5026810;28;20053;-68
2022/04/20 03:40:13;;;;;;;3.95;3.10;;;;;;;6.26;56.17;101524.16;5030881;28;20047;-68
2022/04/20 03:42:43;;;;;;;4.28;2.90;;;;;;;6.25;56.19;101520.63;5029932;28;20128;-68
2022/04/20 03:45:11;;;;;;;8.05;2.83;;;;;;;6.25;56.18;101519.78;5031628;28;20045;-68
2022/04/20 03:47:38;;;;;;;4.97;3.15;;;;;;;6.21;56.12;101521.50;5029650;28;20432;-69
2022/04/20 03:50:06;;;;;;;5.07;3.03;;;;;;;6.19;56.13;101525.91;5028834;28;20057;-69
2022/04/20 03:52:38;;;;;;;5.60;3.33;;;;;;;6.17;56.39;101520.63;5029799;28;20034;-69
2022/04/20 03:55:08;;;;;;;6.72;3.38;;;;;;;6.14;56.32;101511.91;5029461;28;20052;-69
2022/04/20 03:57:36;;;;;;;5.97;3.30;;;;;;;6.12;56.47;101522.41;5028136;28;20077;-69
2022/04/20 04:00:07;;;;;;;4.75;3.50;;;;;;;6.09;56.57;101522.41;5030015;28;20046;-68
2022/04/20 04:02:42;;;;;;;7.20;3.17;;;;;;;6.07;56.67;101526.75;5033835;28;20621;-70
2022/04/20 04:05:14;;;;;;;6.97;2.95;;;;;;;6.06;56.83;101527.63;5031875;28;20428;-68
2022/04/20 04:07:48;;;;;;;4.15;2.83;;;;;;;6.04;56.87;101526.78;5050214;28;20057;-68
2022/04/20 04:10:21;;;;;;;5.70;3.22;;;;;;;6.02;56.81;101525.91;5033820;28;20117;-69
2022/04/20 04:12:49;;;;;;;4.03;2.78;;;;;;;6.01;56.91;101526.78;5032836;28;20056;-69
2022/04/20 04:15:16;;;;;;;4.85;3.03;;;;;;;5.99;57.02;101524.16;5023509;28;20057;-66
2022/04/20 04:17:48;;;;;;;3.80;2.78;;;;;;;5.97;56.96;101535.44;5026947;28;20042;-65
2022/04/20 04:20:16;;;;;;;4.60;3.20;;;;;;;5.94;57.04;101533.72;5030923;28;20053;-66
2022/04/20 04:22:43;;;;;;;4.60;3.00;;;;;;;5.94;57.12;101536.34;5030159;28;20069;-65
2022/04/20 04:25:22;;;;;;;4.85;3.10;;;;;;;5.93;57.04;101539.81;5016750;28;20046;-66
2022/04/20 04:27:50;;;;;;;4.22;2.83;;;;;;;5.95;57.20;101540.69;5022282;28;20150;-65
2022/04/20 04:30:21;;;;;;;5.05;2.78;;;;;;;5.94;57.23;101543.31;5021036;28;20664;-68
2022/04/20 04:33:03;;;;;;;5.57;3.30;;;;;;;5.94;57.30;101546.81;5022839;28;20104;-68
2022/04/20 04:35:32;;;;;;;5.45;2.83;;;;;;;5.94;57.01;101551.19;5024463;28;20126;-68
2022/04/20 04:38:01;;;;;;;7.10;3.28;;;;;;;5.95;57.24;101545.94;5039456;28;20120;-66
2022/04/20 04:40:31;;;;;;;5.70;2.92;;;;;;;5.95;57.28;101545.06;5018244;28;20201;-66
2022/04/20 04:43:00;;;;;;;6.53;3.20;;;;;;;5.96;57.37;101538.94;5029544;28;20121;-66
2022/04/20 04:48:36;;;;;;;6.68;2.85;;;;;;;6.30;59.70;101547.72;5013276;28;20042;-66
2022/04/20 04:51:06;;;;;;;4.65;3.17;;;;;;;6.76;59.84;101549.34;5029704;28;20042;-68
2022/04/20 04:53:34;;;;;;;4.72;3.00;;;;;;;7.44;57.69;101553.41;5032760;28;20076;-67
2022/04/20 04:56:11;;;;;;;5.65;2.72;;;;;;;8.08;55.98;101553.84;5046771;28;20121;-68
2022/04/20 04:58:45;;;;;;;4.93;2.83;;;;;;;8.62;53.43;101555.13;5023519;28;20112;-67
2022/04/20 05:01:13;;;;;;;5.13;2.95;;;;;;;9.12;51.90;101552.75;5024326;28;20053;-67
2022/04/20 05:03:42;;;;;;;6.03;3.25;;;;;;;9.59;50.21;101545.09;5028235;28;20518;-67
2022/04/20 05:06:11;;;;;;;8.65;3.05;;;;;;;10.04;48.36;101554.94;5046640;28;20124;-67
2022/04/20 05:08:58;;;;;;;6.15;3.47;;;;;;;10.09;47.63;101551.31;5031595;28;20038;-67
2022/04/20 05:11:25;;;;;;;6.78;3.30;;;;;;;10.11;47.01;101556.59;5028792;28;20138;-67
2022/04/20 05:13:53;;;;;;;3.63;2.72;;;;;;;10.34;46.52;101552.66;5023170;28;20042;-66
2022/04/20 05:16:23;;;;;;;6.18;2.90;;;;;;;10.69;45.62;101559.94;5029551;28;20046;-67
2022/04/20 05:18:54;;;;;;;4.20;3.17;;;;;;;11.01;44.68;101568.13;5043309;28;20189;-68
2022/04/20 05:21:23;;;;;;;3.38;2.88;;;;;;;11.38;44.19;101564.69;5031739;28;20096;-67
2022/04/20 05:23:54;;;;;;;3.90;2.83;;;;;;;11.64;43.48;101561.47;5013856;28;20052;-67
2022/04/20 05:26:22;;;;;;;5.95;2.80;;;;;;;11.94;42.57;101564.28;5021839;28;20117;-67
2022/04/20 05:28:49;;;;;;;4.82;2.58;;;;;;;12.19;42.11;101566.34;5026745;28;20116;-69
2022/04/20 05:31:19;;;;;;;7.13;2.90;;;;;;;12.41;41.69;101565.81;5038994;28;20538;-69
2022/04/20 05:33:46;;;;;;;4.50;3.00;;;;;;;12.62;41.40;101568.75;5020073;28;20425;-69
2022/04/20 05:36:18;;;;;;;3.63;2.65;;;;;;;12.73;41.03;101564.91;5037861;28;20049;-68
2022/04/20 05:41:41;;;;;;;3.88;2.92;;;;;;;11.36;42.44;101573.56;5025661;28;20358;-69
2022/04/20 05:44:16;;;;;;;5.90;3.10;;;;;;;10.49;44.22;101565.59;5021726;28;20046;-71
2022/04/20 05:46:43;;;;;;;5.88;2.90;;;;;;;9.93;45.97;101569.16;5028060;28;20038;-71
2022/04/20 05:49:15;;;;;;;3.67;2.65;;;;;;;9.54;47.36;101568.84;5029327;28;20050;-68
2022/04/20 05:51:43;;;;;;;5.38;2.90;;;;;;;9.29;48.09;101568.31;5022087;28;20042;-69
2022/04/20 05:54:10;;;;;;;6.38;2.70;;;;;;;9.11;48.58;101574.69;5029262;28;20525;-69
2022/04/20 05:56:39;;;;;;;7.72;3.03;;;;;;;8.99;48.95;101562.56;5024322;28;20129;-68
2022/04/20 05:59:07;;;;;;;4.35;2.83;;;;;;;8.92;49.30;101564.41;5022908;28;20684;-69
2022/04/20 06:01:39;;;;;;;3.63;2.53;;;;;;;8.85;49.88;101555.69;5047318;28;20038;-68
2022/04/20 06:04:14;;;;;;;6.47;2.90;;;;;;;8.84;49.93;101556.63;5033661;28;20504;-68
2022/04/20 06:06:48;;;;;;;3.90;2.55;;;;;;;8.86;50.13;101556.59;5039389;28;20048;-68
2022/04/20 06:09:20;;;;;;;6.07;2.80;;;;;;;8.91;49.92;101553.91;5040484;28;20132;-69
2022/04/20 06:12:14;;;;;;;3.78;2.60;;;;;;;8.93;50.25;101553.00;5044017;28;20057;-68
2022/04/20 06:15:01;;;;;;;5.18;2.70;;;;;;;8.99;50.29;101559.94;5053490;28;20054;-68
2022/04/20 06:17:58;;;;;;;6.78;2.80;;;;;;;9.07;50.40;101546.69;5047692;28;20053;-68
2022/04/20 06:20:25;;;;;;;4.10;2.65;;;;;;;9.13;50.10;101551.88;5012335;28;20050;-69
2022/04/20 06:23:13;;;;;;;4.72;2.92;;;;;;;9.24;50.04;101557.00;5029321;28;20046;-69
2022/04/20 06:26:15;;;;;;;4.07;2.50;;;;;;;9.37;49.90;101555.94;5032508;28;20126;-69
2022/04/20 06:29:07;;;;;;;5.03;3.20;;;;;;;9.47;49.88;101554.91;5031336;28;20116;-70
2022/04/20 06:31:52;;;;;;;6.30;2.65;;;;;;;9.55;49.91;101560.06;5018287;28;20054;-68
2022/04/20 06:34:25;;;;;;;4.30;2.70;;;;;;;9.66;49.55;101559.03;5033540;28;20653;-69
2022/04/20 06:37:00;;;;;;;5.05;2.88;;;;;;;9.71;48.83;101558.09;5047683;28;20113;-69
2022/04/20 06:39:46;;;;;;;3.42;2.53;;;;;;;9.79;49.19;101560.59;5029095;28;20076;-70
2022/04/20 06:42:28;;;;;;;3.65;2.50;;;;;;;9.90;48.99;101565.69;5040249;28;20045;-69
2022/04/20 06:45:23;;;;;;;4.63;3.00;;;;;;;10.03;48.66;101563.72;5011362;28;20046;-70
2022/04/20 06:48:10;;;;;;;4.55;2.70;;;;;;;10.15;48.60;101570.56;5028158;28;20046;-69
2022/04/20 06:50:57;;;;;;;4.78;2.67;;;;;;;10.25;48.30;101567.75;5012470;28;20042;-68
2022/04/20 06:59:28;;;;;;;8.63;3.10;;;;;;;10.56;47.33;101569.84;5027250;28;20563;-69
2022/04/20 07:02:15;;;;;;;5.45;2.90;;;;;;;10.63;47.53;101565.34;5012474;28;20049;-69
2022/04/20 07:05:12;;;;;;;5.57;3.25;;;;;;;10.71;47.36;101565.22;5023421;28;20078;-70
2022/04/20 07:08:03;;;;;;;5.07;2.80;;;;;;;10.81;47.35;101568.50;5011379;28;20117;-69
2022/04/20 07:10:39;;;;;;;4.38;2.63;;;;;;;10.85;46.91;101576.34;5012951;28;20050;-69
2022/04/20 07:13:12;;;;;;;5.07;3.30;;;;;;;10.97;47.25;101569.97;5012316;28;20042;-68
2022/04/20 07:15:39;;;;;;;4.50;3.03;;;;;;;11.08;47.41;101568.88;5018557;28;20121;-68
2022/04/20 07:18:07;;;;;;;4.43;3.20;;;;;;;11.19;46.89;101573.03;5031027;28;20455;-69
2022/04/20 07:21:03;;;;;;;4.25;2.85;;;;;;;11.33;46.89;101572.72;5063976;28;20118;-70
2022/04/20 07:23:57;;;;;;;5.93;2.83;;;;;;;11.44;46.67;101575.13;5045425;28;20061;-70
2022/04/20 07:26:42;;;;;;;6.28;2.80;;;;;;;11.58;46.66;101571.31;5031682;28;20053;-71
2022/04/20 07:29:14;;;;;;;6.47;3.13;;;;;;;11.71;46.82;101577.16;5039497;28;20132;-69
2022/04/20 07:31:56;;;;;;;4.95;2.85;;;;;;;11.80;46.06;101575.19;5051065;28;20407;-69
2022/04/20 07:35:02;;;;;;;7.68;2.90;;;;;;;11.89;45.70;101575.88;5070266;28;20111;-70
2022/04/20 07:37:47;;;;;;;5.35;3.03;;;;;;;11.95;45.14;101573.09;5072731;28;20041;-69
2022/04/20 07:40:34;;;;;;;6.10;2.95;;;;;;;12.03;45.63;101581.72;5059848;28;20049;-70
2022/04/20 07:43:36;;;;;;;5.70;3.00;;;;;;;12.14;45.27;101576.16;5025966;28;20559;-68
2022/04/20 07:46:24;;;;;;;4.25;2.90;;;;;;;12.19;44.86;101576.94;5020153;28;20100;-70
2022/04/20 07:52:23;;;;;;;7.13;2.75;;;;;;;12.24;45.21;101585.59;5014095;28;20098;-69
2022/04/20 07:55:29;;;;;;;3.47;2.50;;;;;;;12.40;44.30;101587.84;5029711;28;20065;-69
2022/04/20 07:58:03;;;;;;;4.78;2.58;;;;;;;12.54;44.37;101587.50;5033642;28;20124;-70
2022/04/20 08:00:51;;;;;;;5.70;2.60;;;;;;;12.69;43.75;101584.41;5035180;28;20042;-69
2022/04/20 08:03:45;;;;;;;3.30;2.33;;;;;;;12.76;42.89;101590.41;5034530;28;20861;-69
2022/04/20 08:06:13;;;;;;;4.25;2.60;;;;;;;12.89;43.53;101590.94;5032539;28;20045;-70
2022/04/20 08:08:42;;;;;;;3.90;2.60;;;;;;;13.07;42.87;101591.34;5031569;28;20783;-68
2022/04/20 08:11:15;;;;;;;4.15;2.40;;;;;;;13.20;42.12;101584.75;5029621;28;20054;-69
2022/04/20 08:16:39;;;;;;;3.80;2.28;;;;;;;13.46;41.81;101591.97;5037838;28;20575;-71
2022/04/20 08:19:26;;;;;;;3.85;2.30;;;;;;;13.62;42.10;101591.50;5014839;28;20046;-69
2022/04/20 08:21:59;;;;;;;4.25;2.10;;;;;;;13.80;41.68;101590.03;5030413;28;20125;-69
2022/04/20 08:24:26;;;;;;;4.65;2.47;;;;;;;13.89;41.32;101588.88;5034894;28;20518;-70
2022/04/20 08:26:55;;;;;;;4.78;2.45;;;;;;;13.96;41.22;101587.75;5034664;28;20034;-70
2022/04/20 08:29:22;;;;;;;3.10;2.30;;;;;;;14.09;41.32;101594.41;5034114;28;20042;-69
2022/04/20 08:31:49;;;;;;;5.18;2.92;;;;;;;14.19;41.23;101588.78;5033591;28;20052;-70
2022/04/20 08:34:16;;;;;;;5.75;2.63;;;;;;;14.29;40.85;101587.56;5033824;28;20078;-70
2022/04/20 08:36:45;;;;;;;3.17;2.70;;;;;;;14.41;41.17;101584.50;5033840;28;20046;-70
2022/04/20 08:39:12;;;;;;;3.90;2.63;;;;;;;14.60;41.20;101584.69;5033775;28;20046;-71
2022/04/20 08:41:49;;;;;;;4.47;2.75;;;;;;;14.75;40.89;101585.13;5033998;28;20099;-69
2022/04/20 08:44:28;;;;;;;3.55;2.55;;;;;;;14.82;40.24;101585.75;5034040;28;20102;-69
2022/04/20 08:47:01;;;;;;;6.25;2.42;;;;;;;14.83;39.59;101582.19;5033243;28;20517;-70
2022/04/20 08:49:28;;;;;;;4.40;2.40;;;;;;;14.78;38.92;101586.78;5034140;28;20042;-70
2022/04/20 08:54:45;;;;;;;3.70;2.70;;;;;;;14.86;39.90;101593.56;5021477;28;20042;-70
2022/04/20 08:57:15;;;;;;;4.03;2.33;;;;;;;15.00;39.52;101587.75;5034039;28;20062;-70
2022/04/20 08:59:44;;;;;;;5.15;2.65;;;;;;;15.05;39.54;101588.44;5033728;28;20042;-69
2022/04/20 09:02:14;;;;;;;6.32;2.92;;;;;;;15.15;39.70;101588.09;5033499;28;20505;-70
2022/04/20 09:04:44;;;;;;;4.03;2.50;;;;;;;15.28;40.15;101588.50;5033551;28;20506;-70
2022/04/20 09:07:15;;;;;;;4.65;2.72;;;;;;;15.46;39.11;101590.44;5033221;28;20045;-70
2022/04/20 09:09:42;;;;;;;5.68;2.72;;;;;;;15.56;38.57;101584.75;5033954;28;20058;-69
2022/04/20 09:12:16;;;;;;;5.18;2.55;;;;;;;15.60;38.50;101575.75;5023544;28;20046;-70
2022/04/20 09:14:50;;;;;;;4.93;2.42;;;;;;;15.69;37.36;101576.22;5033467;28;20081;-68
2022/04/20 09:17:23;;;;;;;5.10;2.40;;;;;;;15.69;36.34;101583.34;5033115;28;20041;-70
2022/04/20 09:19:53;;;;;;;6.10;2.15;;;;;;;15.65;37.09;101579.06;5031793;28;20042;-70
2022/04/20 09:22:29;;;;;;;3.70;2.30;;;;;;;15.67;35.53;101574.56;5023092;28;20038;-69
2022/04/20 09:25:08;;;;;;;4.22;2.40;;;;;;;15.73;36.13;101581.44;5031533;28;20052;-70
2022/04/20 09:27:39;;;;;;;5.18;2.05;;;;;;;15.76;36.10;101579.50;5026978;28;20042;-69
2022/04/20 09:30:15;;;;;;;3.83;2.38;;;;;;;15.81;36.20;101584.63;5032424;28;20113;-70
2022/04/20 09:32:46;;;;;;;4.07;2.35;;;;;;;15.84;36.32;101571.25;5032235;28;20056;-70
2022/04/20 09:35:20;;;;;;;4.45;2.30;;;;;;;16.01;36.02;101581.22;5027506;28;20558;-69
2022/04/20 09:38:05;;;;;;;3.65;2.25;;;;;;;16.08;34.55;101568.50;5028720;28;20119;-69
2022/04/20 09:41:08;;;;;;;3.13;2.03;;;;;;;16.09;34.15;101565.78;5032318;28;20558;-69
2022/04/20 09:43:38;;;;;;;2.40;1.60;;;;;;;16.18;34.11;101561.88;5032831;28;20046;-68
2022/04/20 09:49:08;;;;;;;2.75;2.17;;;;;;;16.36;32.41;101562.03;5032514;28;20042;-69
2022/04/20 09:51:40;;;;;;;4.82;2.25;;;;;;;16.35;33.67;101552.31;5032518;28;20052;-70
2022/04/20 09:54:29;;;;;;;6.43;2.20;;;;;;;16.43;34.30;101558.16;5032451;28;20053;-70
2022/04/20 09:57:16;;;;;;;3.45;2.00;;;;;;;16.64;32.84;101550.16;5032169;28;20046;-70
2022/04/20 10:00:12;;;;;;;3.45;2.25;;;;;;;16.61;32.67;101545.84;5031528;28;20038;-69
2022/04/20 10:02:53;;;;;;;2.90;2.15;;;;;;;16.63;32.63;101545.78;5031412;28;20054;-69
2022/04/20 10:05:23;;;;;;;5.03;2.22;;;;;;;16.71;31.21;101544.50;5032578;28;20050;-70
2022/04/20 10:07:54;;;;;;;3.75;1.95;;;;;;;16.71;31.61;101536.50;5032248;28;20042;-70
2022/04/20 10:10:23;;;;;;;4.55;2.10;;;;;;;16.72;31.94;101534.72;5032571;28;20038;-70
2022/04/20 10:12:54;;;;;;;5.20;2.42;;;;;;;16.77;31.85;101527.38;5032475;28;20575;-70
2022/04/20 10:18:18;;;;;;;4.53;2.05;;;;;;;17.04;33.16;101527.91;5032465;28;20046;-69
2022/04/20 10:20:54;;;;;;;2.78;1.98;;;;;;;17.20;32.91;101530.72;5027159;28;20062;-70
2022/04/20 10:23:23;;;;;;;10.93;4.20;;;;;;;17.38;32.08;101525.47;5025078;28;20046;-70
2022/04/20 10:25:57;;;;;;;2.55;2.08;;;;;;;17.44;31.62;101519.00;5031173;28;20117;-70
2022/04/20 10:29:01;;;;;;;3.25;2.03;;;;;;;17.37;30.74;101529.09;5032427;28;20034;-69
2022/04/20 10:31:44;;;;;;;3.05;1.75;;;;;;;17.27;31.18;101520.66;5031533;28;20046;-70
2022/04/20 10:34:18;;;;;;;7.75;2.10;;;;;;;17.26;31.92;101518.06;5043704;28;20053;-69
2022/04/20 10:37:20;;;;;;;2.60;2.00;;;;;;;17.35;31.42;101513.16;5020245;28;20054;-69
2022/04/20 10:40:18;;;;;;;4.15;2.00;;;;;;;17.49;31.12;101508.97;4994948;28;20058;-70
2022/04/20 10:43:20;;;;;;;5.40;2.20;;;;;;;17.59;31.11;101510.22;5016746;28;20552;-70
2022/04/20 10:46:12;;;;;;;4.78;2.28;;;;;;;17.67;31.18;101505.38;5030925;28;20042;-70
2022/04/20 10:49:15;;;;;;;13.82;3.10;;;;;;;17.74;32.04;101497.94;5032017;28;20139;-70
2022/04/20 10:51:45;;;;;;;3.45;1.80;;;;;;;17.89;31.62;101495.44;5031126;28;20034;-70
2022/04/20 10:54:22;;;;;;;2.90;2.20;;;;;;;17.97;30.34;101494.13;5031146;28;20046;-69
2022/04/20 10:57:13;;;;;;;3.85;2.00;;;;;;;17.91;31.04;101488.22;5028768;28;20495;-71
2022/04/20 10:59:41;;;;;;;3.25;1.63;;;;;;;17.91;30.22;101483.75;5031699;28;20046;-69
2022/04/20 11:02:12;;;;;;;2.17;1.38;;;;;;;17.99;29.67;101483.41;5031811;28;20046;-69
2022/04/20 11:04:48;;;;;;;3.13;1.75;;;;;;;17.98;30.12;101482.53;5031983;28;20042;-69
2022/04/20 11:07:24;;;;;;;3.55;1.80;;;;;;;18.03;30.02;101478.78;5032341;28;20077;-70
2022/04/20 11:10:05;;;;;;;3.75;2.15;;;;;;;18.07;31.18;101472.31;5030288;28;20076;-69
2022/04/20 11:21:21;;;;;;;5.00;2.03;;;;;;;18.46;29.84;101457.84;5031758;28;20049;-69
2022/04/20 11:23:57;;;;;;;4.53;2.13;;;;;;;18.49;28.50;101464.81;5031596;28;20074;-70
2022/04/20 11:26:33;;;;;;;5.28;1.85;;;;;;;18.43;29.54;101456.16;5032013;28;20046;-70
2022/04/20 11:29:13;;;;;;;4.78;2.30;;;;;;;18.58;29.09;101458.97;5031513;28;20057;-70
2022/04/20 11:31:51;;;;;;;4.28;1.80;;;;;;;18.66;29.56;101462.06;5031953;28;20803;-68
2022/04/20 11:34:20;;;;;;;2.90;2.00;;;;;;;18.68;28.70;101445.97;5031595;28;20463;-70
2022/04/20 11:36:53;;;;;;;10.55;2.42;;;;;;;18.69;29.98;101445.00;5030832;28;20042;-69
2022/04/20 11:39:22;;;;;;;4.78;2.15;;;;;;;18.85;30.50;101451.25;5029098;28;20057;-70
2022/04/20 11:41:52;;;;;;;5.20;2.08;;;;;;;19.01;29.23;101453.97;5030942;28;20042;-70
2022/04/20 11:44:29;;;;;;;3.10;2.08;;;;;;;19.09;29.36;101446.38;5031077;28;20516;-69
2022/04/20 11:47:06;;;;;;;4.47;2.17;;;;;;;19.13;29.49;101452.41;5030294;28;20508;-69
2022/04/20 11:49:41;;;;;;;2.80;2.35;;;;;;;19.14;28.97;101439.88;5031407;28;20041;-70
2022/04/20 11:52:14;;;;;;;6.38;2.35;;;;;;;19.13;29.27;101441.72;5026216;28;20046;-70
2022/04/20 11:54:47;;;;;;;7.28;1.77;;;;;;;19.11;28.85;101438.25;5025794;28;20519;-70
2022/04/20 11:57:23;;;;;;;5.22;2.00;;;;;;;18.98;28.55;101445.22;5030072;28;20156;-70
2022/04/20 11:59:51;;;;;;;3.90;2.25;;;;;;;18.93;29.52;101440.16;5030945;28;20057;-70
2022/04/20 12:02:19;;;;;;;4.07;2.47;;;;;;;19.03;29.60;101437.84;5030245;28;20085;-70
2022/04/20 12:05:13;;;;;;;7.03;2.20;;;;;;;19.12;29.62;101421.28;5029440;28;20136;-70
2022/04/20 12:07:40;;;;;;;7.43;2.40;;;;;;;19.19;29.30;101424.47;5031118;28;20046;-70
2022/04/20 12:10:08;;;;;;;3.38;2.03;;;;;;;19.33;29.33;101419.16;5030152;28;20038;-70
2022/04/20 12:12:35;;;;;;;4.65;2.58;;;;;;;19.35;29.67;101427.09;5030547;28;20077;-70
2022/04/20 12:15:08;;;;;;;2.70;2.33;;;;;;;19.40;28.49;101415.19;5030593;28;20411;-69
2022/04/20 12:17:37;;;;;;;5.30;2.10;;;;;;;19.32;28.79;101411.25;5030771;28;20048;-69
2022/04/20 12:20:05;;;;;;;3.58;2.40;;;;;;;19.25;29.56;101421.41;5031169;28;20919;-70
2022/04/20 12:22:38;;;;;;;3.75;2.25;;;;;;;19.24;28.70;101409.00;5009838;28;20140;-70
2022/04/20 12:25:14;;;;;;;5.28;2.25;;;;;;;19.03;29.03;101425.31;5028864;28;20030;-70
2022/04/20 12:27:55;;;;;;;7.28;2.42;;;;;;;18.82;29.25;101418.50;5024072;28;20042;-68
2022/04/20 12:30:45;;;;;;;3.33;2.30;;;;;;;18.85;29.26;101411.19;5030168;28;20050;-68
2022/04/20 12:33:24;;;;;;;4.15;2.08;;;;;;;18.86;29.29;101417.38;5030443;28;20046;-68
2022/04/20 12:36:08;;;;;;;4.28;2.30;;;;;;;18.91;29.26;101405.47;5028788;28;20069;-69
2022/04/20 12:39:01;;;;;;;3.50;2.00;;;;;;;19.05;29.13;101407.41;5026562;28;20070;-69
2022/04/20 12:41:46;;;;;;;5.00;2.15;;;;;;;19.03;29.72;101403.09;5025959;28;20038;-70
2022/04/20 12:44:35;;;;;;;5.50;2.20;;;;;;;19.21;29.15;101401.19;5028509;28;20528;-70
2022/04/20 12:47:08;;;;;;;5.45;2.30;;;;;;;19.31;29.24;101401.50;5029895;28;20053;-69
2022/04/20 12:49:52;;;;;;;5.75;2.28;;;;;;;19.40;29.31;101393.81;5022411;28;20117;-69